Oak Hill, Alabama
Current Conditions -  °F | °C
As of 6:56 PM on Tuesday 25 Nov 2014 (Local Time) from KPRN Reporting Station
Broken Clouds Broken Clouds  
Wind Chill: 54°   Ceiling: 10000
Heat Index: 54°   Visibility: 10mi
Dew Point: 33°   Wind: 3mph
Humidity: 45%   Direction: NA
Pressure: 30.1"   Gusts: NA
Location:  31.92°N, 87.09°W
Report Text: KPRN 260056Z AUTO VRB03KT 10SM BKN100 BKN120 12/01 A3010 RMK AO2 SLP190 T01220006
Loading
Personal Weather Stations






























Interactive Weather Map New forecast layout! Learn more

10-Day Weather Forecast

Advertisements
Track Severe Weather on mobile